Time;durP1;ratioP1;P1;durP2;ratioP2;P2;SDS_P1;SDS_P2;PMS_P1;PMS_P2;Temp;Humidity;BMP_temperature;BMP_pressure;BME280_temperature;BME280_humidity;BME280_pressure;Samples;Min_cycle;Max_cycle;Signal;HPM_P1;HPM_P2
2021/03/31 00:03:23;;;;;;;12.13;5.63;;;;;;;13.05;34.59;98835.09;10096552;29;20052;-79
2021/03/31 00:08:43;;;;;;;10.13;5.82;;;;;;;12.90;34.64;98831.19;10096468;29;20404;-79
2021/03/31 00:14:03;;;;;;;12.27;5.72;;;;;;;12.83;35.13;98834.84;10096374;29;20052;-79
2021/03/31 00:19:23;;;;;;;9.32;6.25;;;;;;;12.77;35.65;98828.81;10096335;29;20420;-79
2021/03/31 00:24:43;;;;;;;10.15;6.10;;;;;;;12.70;35.59;98828.91;10109341;29;20045;-79
2021/03/31 00:30:06;;;;;;;11.50;6.55;;;;;;;12.64;35.71;98826.38;10083956;29;20041;-79
2021/03/31 00:35:25;;;;;;;10.10;5.90;;;;;;;12.60;35.70;98831.69;10109076;29;20052;-79
2021/03/31 00:40:51;;;;;;;14.73;6.30;;;;;;;12.56;36.13;98822.97;10083076;29;20051;-78
2021/03/31 00:46:11;;;;;;;11.25;6.38;;;;;;;12.48;35.94;98819.56;10086655;29;20083;-79
2021/03/31 00:51:31;;;;;;;13.07;6.65;;;;;;;12.40;36.29;98818.94;10090796;29;20044;-79
2021/03/31 00:56:51;;;;;;;10.25;6.22;;;;;;;12.33;36.59;98803.72;10103155;29;20041;-79
2021/03/31 01:02:11;;;;;;;10.13;6.60;;;;;;;12.30;36.62;98794.41;10116497;29;20404;-78
2021/03/31 01:07:31;;;;;;;10.93;6.38;;;;;;;12.36;36.91;98785.03;10103196;29;20123;-79
2021/03/31 01:13:28;;;;;;;11.65;6.10;;;;;;;12.39;36.94;98783.84;10089911;29;20047;-79
2021/03/31 01:18:52;;;;;;;13.98;6.38;;;;;;;12.37;36.84;98783.69;10129023;29;20409;-78
2021/03/31 01:24:40;;;;;;;16.25;7.45;;;;;;;12.40;36.98;98785.31;10102016;29;20036;-79
2021/03/31 01:30:18;;;;;;;12.10;6.68;;;;;;;12.40;36.62;98785.31;10128146;29;20124;-79
2021/03/31 01:35:39;;;;;;;12.00;7.20;;;;;;;12.32;37.09;98768.63;10114944;29;20056;-79
2021/03/31 01:40:59;;;;;;;12.50;7.68;;;;;;;12.40;37.10;98766.47;10089710;29;20490;-79
2021/03/31 01:46:19;;;;;;;11.48;7.72;;;;;;;12.42;37.20;98760.28;10102560;29;20056;-79
2021/03/31 01:51:39;;;;;;;13.65;7.10;;;;;;;12.33;37.17;98759.66;10101672;29;20045;-79
2021/03/31 01:56:58;;;;;;;13.40;7.60;;;;;;;12.15;37.44;98761.03;10087870;29;20476;-78
2021/03/31 02:02:18;;;;;;;15.88;7.80;;;;;;;12.01;37.99;98748.75;10101770;29;20044;-79
2021/03/31 02:07:40;;;;;;;12.43;8.20;;;;;;;12.02;37.91;98753.78;10088153;29;20045;-79
2021/03/31 02:12:59;;;;;;;12.65;7.70;;;;;;;11.97;37.66;98748.47;10101530;29;20053;-79
2021/03/31 02:18:19;;;;;;;16.83;7.68;;;;;;;11.82;38.51;98755.00;10100348;29;20064;-78
2021/03/31 02:23:39;;;;;;;13.57;7.13;;;;;;;11.67;38.45;98752.34;10087855;29;20048;-78
2021/03/31 02:28:58;;;;;;;11.80;6.85;;;;;;;11.45;38.77;98749.28;10087135;29;20060;-78
2021/03/31 02:34:18;;;;;;;10.80;7.22;;;;;;;11.32;38.94;98751.69;10087740;29;20052;-79
2021/03/31 02:39:39;;;;;;;15.13;7.72;;;;;;;11.26;39.26;98743.53;10086865;29;20047;-79
2021/03/31 02:44:59;;;;;;;16.42;7.65;;;;;;;11.24;39.64;98739.84;10100170;29;20048;-79
2021/03/31 02:50:21;;;;;;;15.32;7.85;;;;;;;11.18;39.70;98740.81;10099793;29;20041;-79
2021/03/31 02:55:41;;;;;;;12.20;7.75;;;;;;;11.24;40.11;98745.44;10087104;29;20048;-79
2021/03/31 03:01:01;;;;;;;16.30;8.40;;;;;;;11.26;40.18;98737.19;10111904;29;20100;-79
2021/03/31 03:06:23;;;;;;;12.05;7.22;;;;;;;11.28;40.18;98745.75;10098470;29;20045;-78
2021/03/31 03:11:44;;;;;;;11.63;7.43;;;;;;;11.11;40.17;98744.44;10086206;29;20045;-79
2021/03/31 03:17:04;;;;;;;10.70;7.60;;;;;;;10.97;40.77;98746.06;10111627;29;20053;-78
2021/03/31 03:22:25;;;;;;;12.23;7.43;;;;;;;10.84;41.08;98743.63;10111275;29;20045;-79
2021/03/31 03:27:45;;;;;;;10.52;7.57;;;;;;;10.72;41.04;98751.00;10111602;29;20048;-79
2021/03/31 03:33:05;;;;;;;13.43;7.50;;;;;;;10.60;41.41;98748.66;10111021;29;20049;-79
2021/03/31 03:38:25;;;;;;;13.20;6.97;;;;;;;10.48;41.79;98749.69;10097647;29;20108;-79
2021/03/31 03:43:45;;;;;;;18.25;7.55;;;;;;;10.33;42.11;98750.56;10110318;29;20064;-78
2021/03/31 03:49:05;;;;;;;23.92;7.43;;;;;;;10.18;42.55;98743.00;10097494;29;20051;-78
2021/03/31 03:54:25;;;;;;;11.95;6.90;;;;;;;10.11;43.05;98734.69;10085306;29;20048;-79
2021/03/31 03:59:45;;;;;;;14.50;7.75;;;;;;;10.03;43.10;98732.69;10097161;29;20122;-78
2021/03/31 04:05:06;;;;;;;18.63;8.13;;;;;;;10.01;43.59;98740.16;10070986;29;20512;-79
2021/03/31 04:10:27;;;;;;;15.75;7.03;;;;;;;9.89;43.55;98736.31;10097163;29;20051;-78
2021/03/31 04:15:49;;;;;;;14.55;7.65;;;;;;;9.81;43.96;98730.78;10084018;29;20086;-79
2021/03/31 04:21:09;;;;;;;15.57;7.65;;;;;;;9.76;44.07;98734.53;10097408;29;20041;-79
2021/03/31 04:26:32;;;;;;;16.98;7.80;;;;;;;9.78;44.55;98725.59;10071525;29;20044;-78
2021/03/31 04:31:52;;;;;;;11.30;6.88;;;;;;;9.83;44.77;98725.38;10083729;29;20041;-78
2021/03/31 04:37:14;;;;;;;14.43;7.18;;;;;;;9.85;44.73;98728.34;10084374;29;20744;-79
2021/03/31 04:42:33;;;;;;;14.98;7.50;;;;;;;9.90;45.06;98735.75;10083577;29;20062;-79
2021/03/31 04:47:53;;;;;;;17.08;7.22;;;;;;;9.92;44.86;98727.56;10084893;29;20118;-78
2021/03/31 04:53:13;;;;;;;13.18;7.43;;;;;;;9.93;44.77;98726.25;10096632;29;20040;-79
2021/03/31 04:58:33;;;;;;;15.38;8.43;;;;;;;10.01;45.12;98728.97;10083798;29;20597;-78
2021/03/31 05:03:52;;;;;;;13.35;7.88;;;;;;;10.22;44.89;98726.63;10083952;29;20445;-79
2021/03/31 05:09:12;;;;;;;15.63;8.45;;;;;;;10.55;45.10;98730.09;10109602;29;20049;-79
2021/03/31 05:14:32;;;;;;;13.73;8.07;;;;;;;10.93;44.72;98714.28;10110369;29;20096;-79
2021/03/31 05:19:52;;;;;;;18.10;8.35;;;;;;;11.36;44.75;98715.66;10083919;29;20400;-79
2021/03/31 05:25:12;;;;;;;9.95;5.82;;;;;;;11.92;43.94;98713.81;10084484;29;20044;-79
2021/03/31 05:30:31;;;;;;;11.48;6.15;;;;;;;12.54;43.69;98716.38;10109762;29;20051;-79
2021/03/31 05:35:51;;;;;;;15.57;5.72;;;;;;;13.23;43.13;98715.91;10116556;29;20424;-79
2021/03/31 05:41:11;;;;;;;11.75;6.00;;;;;;;14.17;42.00;98719.69;10091799;29;20051;-79
2021/03/31 05:46:31;;;;;;;10.68;6.15;;;;;;;15.70;40.37;98716.44;10114837;29;20072;-78
2021/03/31 05:51:51;;;;;;;12.63;5.75;;;;;;;20.96;39.33;98713.66;10120700;29;20041;-79
2021/03/31 05:57:11;;;;;;;10.55;5.28;;;;;;;26.13;33.95;98710.16;10106100;29;20088;-78
2021/03/31 06:02:30;;;;;;;13.25;5.15;;;;;;;32.37;26.85;98720.75;10112382;29;20515;-79
2021/03/31 06:07:50;;;;;;;8.25;4.57;;;;;;;37.02;19.75;98726.91;10112227;29;20052;-77
2021/03/31 06:13:12;;;;;;;11.13;3.97;;;;;;;40.50;13.83;98724.44;10099910;29;20138;-76
2021/03/31 06:18:32;;;;;;;8.40;3.97;;;;;;;43.56;9.55;98727.09;10100246;29;20076;-76
2021/03/31 06:24:10;;;;;;;6.97;3.97;;;;;;;45.26;7.50;98727.50;10125332;29;20044;-77
2021/03/31 06:29:44;;;;;;;9.45;4.07;;;;;;;47.06;5.64;98706.78;10117382;29;20092;-78
2021/03/31 06:35:06;;;;;;;11.82;4.20;;;;;;;48.60;4.84;98703.59;10125117;29;20053;-78
2021/03/31 06:40:48;;;;;;;10.77;4.10;;;;;;;50.01;3.56;98707.84;10111736;29;20511;-77
2021/03/31 06:46:19;;;;;;;7.80;4.05;;;;;;;52.05;2.86;98697.63;10126714;29;20100;-78
2021/03/31 06:51:39;;;;;;;11.38;4.32;;;;;;;53.16;1.66;98695.81;10124432;29;20480;-78
2021/03/31 06:56:59;;;;;;;9.80;3.90;;;;;;;53.09;2.30;98691.31;10129808;29;20044;-78
2021/03/31 07:02:19;;;;;;;13.73;4.95;;;;;;;54.15;1.67;98682.03;10085719;29;20060;-78
2021/03/31 07:07:42;;;;;;;10.27;4.97;;;;;;;54.71;1.55;98680.31;10072265;29;20128;-76
2021/03/31 07:13:02;;;;;;;11.55;6.10;;;;;;;55.09;1.28;98685.41;10085315;29;20401;-77
2021/03/31 07:18:22;;;;;;;11.93;6.35;;;;;;;55.68;1.51;98679.38;10071893;29;20049;-79
2021/03/31 07:23:42;;;;;;;14.75;6.47;;;;;;;56.59;0.90;98674.31;10071943;29;20041;-77
2021/03/31 07:29:02;;;;;;;13.68;6.53;;;;;;;55.42;0.80;98670.84;10058757;29;20384;-77
2021/03/31 07:34:26;;;;;;;15.70;5.70;;;;;;;56.45;0.62;98661.53;10068686;29;20104;-78
2021/03/31 07:39:49;;;;;;;20.33;6.80;;;;;;;57.48;0.03;98663.13;10120353;29;20064;-85
2021/03/31 07:45:10;;;;;;;16.70;5.47;;;;;;;58.99;0.04;98652.50;10083824;29;20062;-82
2021/03/31 07:50:34;;;;;;;14.20;5.57;;;;;;;59.83;0.00;98652.13;10096615;29;20059;-83
2021/03/31 07:55:55;;;;;;;15.67;5.20;;;;;;;60.09;0.00;98651.91;10109095;29;20476;-84
2021/03/31 08:01:15;;;;;;;8.30;4.53;;;;;;;60.25;0.00;98654.53;10121723;29;20273;-81
2021/03/31 08:06:43;;;;;;;8.48;4.50;;;;;;;60.87;0.00;98654.28;10108669;29;20054;-84
2021/03/31 08:12:05;;;;;;;13.63;4.70;;;;;;;60.07;0.00;98639.41;10122642;29;20099;-84
2021/03/31 08:17:25;;;;;;;10.88;4.82;;;;;;;61.18;0.00;98635.97;10121669;29;20040;-80
2021/03/31 08:22:44;;;;;;;11.82;4.50;;;;;;;61.36;0.00;98642.00;10108692;29;20381;-76
2021/03/31 08:28:10;;;;;;;12.23;4.75;;;;;;;60.96;0.00;98637.19;10121584;29;20128;-77
2021/03/31 08:33:30;;;;;;;11.80;4.70;;;;;;;60.78;0.00;98624.47;10121453;29;20064;-78
2021/03/31 08:38:55;;;;;;;11.40;4.60;;;;;;;60.94;0.00;98628.41;10108554;29;20045;-76
2021/03/31 08:44:28;;;;;;;15.60;5.40;;;;;;;60.60;0.00;98618.41;10095368;29;20069;-78
2021/03/31 08:49:50;;;;;;;13.25;4.53;;;;;;;61.51;0.00;98627.13;10096419;29;20052;-78
2021/03/31 08:55:12;;;;;;;10.02;4.47;;;;;;;62.36;0.00;98614.44;10095341;29;20048;-76
2021/03/31 09:00:45;;;;;;;13.75;5.72;;;;;;;62.19;0.00;98609.91;10094907;29;20404;-77
2021/03/31 09:06:05;;;;;;;10.18;4.45;;;;;;;63.16;0.00;98614.09;10108883;29;20045;-81
2021/03/31 09:11:29;;;;;;;12.63;4.85;;;;;;;61.71;0.00;98601.94;10115100;29;20045;-80
2021/03/31 09:16:57;;;;;;;13.07;4.53;;;;;;;61.72;0.00;98594.94;10102210;29;20075;-87
2021/03/31 09:22:28;;;;;;;14.77;5.32;;;;;;;61.22;0.00;98581.84;10116201;29;20051;-86
2021/03/31 09:27:49;;;;;;;14.02;4.88;;;;;;;61.28;0.00;98582.66;10115148;29;20107;-87
2021/03/31 09:33:14;;;;;;;16.25;4.80;;;;;;;60.16;0.00;98581.88;10085301;29;20115;-86
2021/03/31 09:38:34;;;;;;;11.57;4.30;;;;;;;59.82;0.00;98579.16;10063344;29;20052;-87
2021/03/31 09:43:53;;;;;;;10.45;4.18;;;;;;;59.26;0.00;98574.75;10119090;29;20059;-87
2021/03/31 09:49:13;;;;;;;8.55;4.65;;;;;;;59.48;0.00;98568.38;10094349;29;20412;-85
2021/03/31 09:54:33;;;;;;;14.65;4.40;;;;;;;59.53;0.00;98557.88;10087677;29;20056;-79
2021/03/31 09:59:53;;;;;;;12.05;4.55;;;;;;;58.81;0.00;98562.13;10100405;29;20045;-84
2021/03/31 10:05:22;;;;;;;13.30;4.40;;;;;;;59.24;0.00;98548.63;10100165;29;20178;-78
2021/03/31 10:10:50;;;;;;;9.85;4.80;;;;;;;59.53;0.00;98536.81;10128274;29;20052;-79
2021/03/31 10:16:11;;;;;;;9.95;5.03;;;;;;;59.55;0.00;98533.56;10139218;29;20148;-77
2021/03/31 10:21:32;;;;;;;9.13;4.78;;;;;;;59.58;0.00;98528.69;10125680;29;20052;-77
2021/03/31 10:26:54;;;;;;;11.35;4.82;;;;;;;58.80;0.00;98515.66;10125693;29;20045;-80
2021/03/31 10:32:16;;;;;;;9.90;4.70;;;;;;;58.24;0.00;98505.75;10124989;29;20045;-78
2021/03/31 10:37:39;;;;;;;13.65;5.20;;;;;;;52.89;0.99;98506.09;10104615;29;20041;-78
2021/03/31 10:48:57;;;;;;;10.98;5.28;;;;;;;43.34;5.05;98490.31;10117105;29;20519;-79
2021/03/31 10:54:19;;;;;;;13.15;5.30;;;;;;;40.86;6.37;98488.91;10101193;29;20048;-77
2021/03/31 10:59:44;;;;;;;8.50;5.30;;;;;;;38.51;7.23;98496.28;10081664;29;20060;-78
2021/03/31 11:05:08;;;;;;;10.15;5.03;;;;;;;37.13;8.19;98483.66;10127380;29;20044;-78
2021/03/31 11:10:28;;;;;;;8.68;4.55;;;;;;;35.69;8.98;98487.84;10127930;29;20503;-77
2021/03/31 11:15:47;;;;;;;9.45;4.22;;;;;;;35.45;9.33;98480.38;10127982;29;20381;-79
2021/03/31 11:26:47;;;;;;;13.20;5.25;;;;;;;33.95;10.26;98465.56;10111604;29;20401;-78
2021/03/31 11:32:07;;;;;;;7.93;4.78;;;;;;;32.88;10.90;98450.94;10115801;29;20055;-79
2021/03/31 11:37:27;;;;;;;11.88;4.60;;;;;;;31.96;11.15;98454.56;10093824;29;20048;-77
2021/03/31 11:42:47;;;;;;;9.80;4.40;;;;;;;31.44;11.47;98449.78;10113977;29;20052;-78
2021/03/31 11:48:07;;;;;;;9.13;4.05;;;;;;;31.51;11.38;98436.78;10111547;29;20381;-78
2021/03/31 11:53:29;;;;;;;9.25;4.65;;;;;;;31.37;11.80;98428.91;10113359;29;20040;-78
2021/03/31 11:58:49;;;;;;;7.60;4.50;;;;;;;30.34;12.33;98435.59;10114221;29;20053;-78
2021/03/31 12:04:10;;;;;;;10.02;4.78;;;;;;;29.89;12.80;98424.03;10077950;29;20167;-77
2021/03/31 12:09:30;;;;;;;10.13;4.88;;;;;;;29.11;13.52;98430.97;10100696;29;20420;-78
2021/03/31 12:14:50;;;;;;;8.27;4.70;;;;;;;29.34;13.29;98406.63;10077194;29;20044;-78
2021/03/31 12:20:12;;;;;;;8.23;4.47;;;;;;;29.42;13.50;98400.88;10089489;29;20037;-76
2021/03/31 12:25:33;;;;;;;9.15;4.18;;;;;;;28.95;13.99;98394.97;10098981;29;20051;-78
2021/03/31 12:30:53;;;;;;;9.80;3.97;;;;;;;28.76;14.00;98385.53;10085595;29;20392;-79
2021/03/31 12:36:13;;;;;;;11.35;5.20;;;;;;;28.12;14.66;98389.38;10124837;29;20045;-77
2021/03/31 12:41:34;;;;;;;6.72;4.00;;;;;;;27.77;15.20;98384.75;10076849;29;20048;-80
2021/03/31 12:46:54;;;;;;;10.33;5.13;;;;;;;27.97;15.27;98373.44;10090404;29;20060;-79
2021/03/31 12:52:16;;;;;;;9.13;4.43;;;;;;;28.24;15.12;98365.78;10077185;29;20056;-76
2021/03/31 12:57:35;;;;;;;4.95;3.13;;;;;;;28.07;15.13;98356.31;10089972;29;20489;-79
2021/03/31 13:03:00;;;;;;;5.95;3.65;;;;;;;27.65;14.90;98345.94;10102662;29;20132;-80
2021/03/31 13:08:20;;;;;;;8.70;4.75;;;;;;;26.66;16.05;98336.91;10100504;29;20248;-83
2021/03/31 13:25:11;;;;;;;12.52;4.10;;;;;;;26.86;16.63;98330.72;10128086;29;20041;-83
2021/03/31 13:30:40;;;;;;;7.25;3.38;;;;;;;27.29;15.83;98325.47;10110519;29;20053;-80
2021/03/31 13:36:10;;;;;;;7.40;3.92;;;;;;;27.63;15.97;98314.34;10090420;29;20523;-81
2021/03/31 13:41:33;;;;;;;10.38;3.92;;;;;;;27.37;15.48;98311.22;10090758;29;20045;-79
2021/03/31 13:46:58;;;;;;;10.38;3.30;;;;;;;27.15;15.32;98308.88;10112776;29;20049;-79
2021/03/31 13:52:21;;;;;;;5.38;2.70;;;;;;;26.95;15.93;98297.88;10088697;29;20045;-77
2021/03/31 13:57:44;;;;;;;6.93;3.03;;;;;;;26.70;15.92;98290.41;10102186;29;20077;-77
2021/03/31 14:03:04;;;;;;;7.60;3.58;;;;;;;26.68;15.91;98284.66;10098854;29;20044;-78
2021/03/31 14:08:24;;;;;;;6.00;3.40;;;;;;;26.86;15.67;98275.56;10099348;29;20107;-78
2021/03/31 14:13:44;;;;;;;7.28;3.28;;;;;;;26.63;15.82;98277.44;10100367;29;20044;-78
2021/03/31 14:19:05;;;;;;;10.20;3.22;;;;;;;26.71;15.74;98266.81;10074422;29;20494;-79
2021/03/31 14:24:25;;;;;;;9.75;2.92;;;;;;;26.47;16.00;98252.94;10087517;29;20045;-79
2021/03/31 14:29:45;;;;;;;4.50;2.72;;;;;;;26.23;15.84;98246.84;10125803;29;20044;-80
2021/03/31 14:35:06;;;;;;;5.55;3.00;;;;;;;26.05;16.22;98249.44;10099238;29;20477;-78
2021/03/31 14:40:25;;;;;;;6.65;3.00;;;;;;;25.99;16.37;98235.81;10112365;29;20048;-80
2021/03/31 14:45:45;;;;;;;8.15;2.55;;;;;;;25.71;16.60;98230.38;10098549;29;20064;-79
2021/03/31 14:51:05;;;;;;;7.53;2.72;;;;;;;25.42;16.51;98231.31;10072742;29;20048;-82
2021/03/31 15:02:05;;;;;;;5.57;2.33;;;;;;;25.52;16.62;98202.91;10113560;29;20044;-81
2021/03/31 15:07:25;;;;;;;14.40;2.83;;;;;;;25.52;16.97;98212.19;10110499;29;20399;-82
2021/03/31 15:12:45;;;;;;;5.72;2.70;;;;;;;25.39;17.15;98202.72;10111118;29;20045;-81
2021/03/31 15:18:05;;;;;;;5.70;2.30;;;;;;;25.30;16.93;98192.56;10110493;29;20051;-85
2021/03/31 15:23:43;;;;;;;6.03;2.35;;;;;;;25.03;17.39;98193.53;10097786;29;20112;-82
2021/03/31 15:29:02;;;;;;;5.97;2.88;;;;;;;24.81;17.46;98186.00;10101862;29;20049;-87
2021/03/31 15:34:22;;;;;;;4.25;2.20;;;;;;;24.73;17.44;98173.69;10084234;29;20048;-85
2021/03/31 15:39:42;;;;;;;8.55;2.60;;;;;;;24.64;17.47;98160.69;10110242;29;20063;-86
2021/03/31 15:45:06;;;;;;;3.70;2.08;;;;;;;24.61;17.73;98159.19;10109809;29;20121;-92
2021/03/31 15:50:26;;;;;;;9.00;2.20;;;;;;;24.48;17.82;98158.25;10097548;29;20047;-81
2021/03/31 15:55:46;;;;;;;5.05;2.45;;;;;;;24.44;17.72;98146.75;10083792;29;20049;-84
2021/03/31 16:01:06;;;;;;;4.82;1.98;;;;;;;24.21;17.95;98142.72;10109348;29;20408;-79
2021/03/31 16:12:05;;;;;;;7.13;2.25;;;;;;;24.00;18.31;98135.88;10113559;29;20108;-82
2021/03/31 16:17:24;;;;;;;4.97;2.10;;;;;;;23.91;18.51;98132.13;10095526;29;20405;-81
2021/03/31 16:22:45;;;;;;;4.32;1.90;;;;;;;23.85;18.23;98131.28;10108585;29;20055;-80
2021/03/31 16:33:25;;;;;;;7.32;1.83;;;;;;;23.65;18.73;98138.00;10108697;29;20048;-78
2021/03/31 16:38:44;;;;;;;5.80;2.20;;;;;;;23.40;18.79;98121.72;10082619;29;20484;-79
2021/03/31 16:44:07;;;;;;;3.15;1.42;;;;;;;23.18;18.69;98130.47;10095333;29;20049;-79
2021/03/31 16:49:27;;;;;;;5.00;1.97;;;;;;;23.01;18.90;98120.81;10121224;29;20048;-78
2021/03/31 16:54:46;;;;;;;4.15;1.42;;;;;;;22.81;18.96;98117.44;10108162;29;20136;-78
2021/03/31 17:00:07;;;;;;;5.60;1.83;;;;;;;22.64;19.25;98119.13;10095071;29;20093;-84
2021/03/31 17:05:27;;;;;;;5.97;2.85;;;;;;;22.45;19.88;98106.56;10108023;29;20072;-82
2021/03/31 17:10:49;;;;;;;8.20;3.60;;;;;;;22.24;19.65;98108.13;10107783;29;20045;-79
2021/03/31 17:16:09;;;;;;;8.00;4.40;;;;;;;21.98;20.55;98098.84;10083114;29;20049;-82
2021/03/31 17:21:30;;;;;;;13.25;4.57;;;;;;;21.66;20.65;98107.88;10081836;29;20045;-79
2021/03/31 17:26:49;;;;;;;15.05;6.10;;;;;;;21.40;21.10;98107.09;10069690;29;20096;-81
2021/03/31 17:32:09;;;;;;;11.63;5.68;;;;;;;21.12;21.59;98110.47;10088938;29;20073;-79
2021/03/31 17:37:29;;;;;;;16.73;6.20;;;;;;;20.88;22.14;98114.63;10069718;29;20449;-85
2021/03/31 17:42:49;;;;;;;11.85;6.00;;;;;;;20.66;22.63;98101.16;10089048;29;20112;-82
2021/03/31 17:48:09;;;;;;;13.80;6.07;;;;;;;20.46;22.68;98104.06;10088567;29;20434;-83
2021/03/31 17:53:30;;;;;;;13.38;5.90;;;;;;;20.29;23.41;98102.00;10088351;29;20052;-78
2021/03/31 17:58:50;;;;;;;10.23;6.15;;;;;;;20.11;23.88;98102.06;10088146;29;20048;-78
2021/03/31 18:04:09;;;;;;;13.32;5.93;;;;;;;19.97;24.02;98095.88;10087792;29;20132;-79
2021/03/31 18:09:30;;;;;;;11.98;6.88;;;;;;;19.83;24.40;98101.78;10087793;29;20458;-78
2021/03/31 18:14:51;;;;;;;13.35;7.45;;;;;;;19.70;24.45;98105.53;10074473;29;20477;-79
2021/03/31 18:20:11;;;;;;;15.23;9.68;;;;;;;19.54;24.90;98107.72;10087458;29;20045;-78
2021/03/31 18:25:31;;;;;;;22.80;11.73;;;;;;;19.35;25.19;98104.19;10086876;29;20432;-79
2021/03/31 18:30:51;;;;;;;18.98;10.15;;;;;;;19.22;25.30;98102.28;10073996;29;20045;-80
2021/03/31 18:36:11;;;;;;;19.80;10.13;;;;;;;19.08;25.76;98102.44;10073892;29;20139;-77
2021/03/31 18:41:50;;;;;;;11.60;7.07;;;;;;;19.01;25.89;98106.41;10086190;29;20127;-76
2021/03/31 18:47:11;;;;;;;18.85;8.27;;;;;;;18.96;26.25;98107.59;10099550;29;20049;-80
2021/03/31 18:52:30;;;;;;;13.48;7.82;;;;;;;18.81;26.34;98111.22;10073063;29;20493;-81
2021/03/31 18:57:51;;;;;;;15.13;8.35;;;;;;;18.72;26.61;98098.88;10085951;29;20124;-80
2021/03/31 19:03:11;;;;;;;14.10;8.80;;;;;;;18.62;26.56;98106.16;10098549;29;20088;-78
2021/03/31 19:11:01;;;;;;;13.68;7.35;;;;;;;18.48;27.37;98101.38;10072574;29;20052;-77
2021/03/31 19:14:20;;;;;;;17.33;7.75;;;;;;;18.37;27.55;98099.50;10089461;29;20139;-78
2021/03/31 19:19:41;;;;;;;17.05;8.55;;;;;;;18.27;27.80;98099.06;10070478;29;20101;-75
2021/03/31 19:25:00;;;;;;;13.15;7.68;;;;;;;18.20;28.08;98098.06;10072028;29;20409;-75
2021/03/31 19:30:22;;;;;;;12.18;7.57;;;;;;;18.14;28.13;98103.44;10097792;29;20374;-77
2021/03/31 19:35:46;;;;;;;14.90;7.50;;;;;;;18.02;28.37;98089.50;10084318;29;20473;-76
2021/03/31 19:41:06;;;;;;;18.50;8.23;;;;;;;17.84;28.57;98083.06;10124492;29;20523;-76
2021/03/31 19:46:26;;;;;;;16.60;8.82;;;;;;;17.66;28.92;98079.38;10068646;29;20045;-76
2021/03/31 19:51:46;;;;;;;17.65;8.75;;;;;;;17.59;29.14;98072.75;10063708;29;20501;-77
2021/03/31 19:57:07;;;;;;;18.02;9.52;;;;;;;17.56;29.36;98073.28;10053196;29;20104;-75
2021/03/31 20:02:26;;;;;;;15.63;8.43;;;;;;;17.59;29.40;98061.47;10055501;29;20462;-77
2021/03/31 20:07:46;;;;;;;18.90;9.05;;;;;;;17.56;29.57;98062.72;10079339;29;20051;-77
2021/03/31 20:13:06;;;;;;;13.93;9.48;;;;;;;17.40;29.97;98068.38;10066091;29;20037;-76
2021/03/31 20:18:26;;;;;;;19.45;8.55;;;;;;;17.24;30.32;98058.44;10053494;29;20049;-76
2021/03/31 20:23:45;;;;;;;13.48;8.75;;;;;;;17.16;30.40;98062.31;10052132;29;20037;-77
2021/03/31 20:29:05;;;;;;;16.05;9.25;;;;;;;17.01;30.85;98063.03;10078842;29;20485;-76
2021/03/31 20:34:25;;;;;;;13.35;8.65;;;;;;;16.85;31.22;98057.34;10067202;29;20109;-77
2021/03/31 20:39:47;;;;;;;15.38;8.70;;;;;;;16.66;31.84;98051.44;10069026;29;20057;-77
2021/03/31 20:45:08;;;;;;;19.00;9.88;;;;;;;16.50;31.73;98046.47;10108640;29;20386;-75
2021/03/31 20:50:28;;;;;;;16.10;10.32;;;;;;;16.44;32.35;98043.34;10108417;29;20052;-75
2021/03/31 20:55:48;;;;;;;21.60;10.95;;;;;;;16.39;32.50;98044.50;10121574;29;20516;-76
2021/03/31 21:01:08;;;;;;;18.67;9.88;;;;;;;16.33;32.72;98038.59;10108382;29;20464;-76
2021/03/31 21:06:28;;;;;;;18.45;11.07;;;;;;;16.29;32.96;98033.47;10129530;29;20457;-76
2021/03/31 21:11:47;;;;;;;17.17;9.60;;;;;;;16.35;33.30;98035.84;10128735;29;20056;-76
2021/03/31 21:17:10;;;;;;;17.48;8.98;;;;;;;16.40;33.04;98034.69;10128706;29;20052;-76
2021/03/31 21:22:30;;;;;;;16.58;9.75;;;;;;;16.36;32.96;98031.69;10128308;29;20048;-76
2021/03/31 21:27:50;;;;;;;21.10;12.80;;;;;;;16.33;33.32;98032.22;10141302;29;20056;-76
2021/03/31 21:33:10;;;;;;;17.90;9.95;;;;;;;16.29;33.65;98025.00;10112508;29;20060;-76
2021/03/31 21:38:30;;;;;;;16.77;9.50;;;;;;;16.31;33.66;98027.94;10127752;29;20073;-76
2021/03/31 21:43:50;;;;;;;20.77;9.65;;;;;;;16.26;33.83;98023.47;10127714;29;20100;-76
2021/03/31 21:49:10;;;;;;;20.20;10.48;;;;;;;16.21;33.83;98015.41;10127209;29;20104;-74
2021/03/31 21:54:32;;;;;;;13.63;7.68;;;;;;;16.11;33.78;98017.72;10114495;29;20044;-76
2021/03/31 21:59:52;;;;;;;14.70;7.53;;;;;;;16.06;33.82;98019.63;10139901;29;20121;-75
2021/03/31 22:05:12;;;;;;;11.13;5.47;;;;;;;16.06;33.69;98011.19;10111388;29;20064;-76
2021/03/31 22:10:38;;;;;;;10.38;4.97;;;;;;;16.10;33.59;98010.66;10126426;29;20484;-75
2021/03/31 22:15:58;;;;;;;9.18;4.47;;;;;;;16.11;33.48;98010.00;10138685;29;20448;-76
2021/03/31 22:21:21;;;;;;;7.43;4.00;;;;;;;16.12;33.43;98005.88;10126353;29;20052;-76
2021/03/31 22:26:40;;;;;;;12.05;4.60;;;;;;;16.10;33.30;98005.00;10125494;29;20044;-76
2021/03/31 22:32:02;;;;;;;8.40;3.97;;;;;;;16.09;33.38;98004.28;10139125;29;20044;-75
2021/03/31 22:37:22;;;;;;;7.70;2.92;;;;;;;16.05;33.43;98004.09;10125575;29;20043;-75
2021/03/31 22:42:42;;;;;;;7.45;2.28;;;;;;;16.05;33.47;98004.09;10138715;29;20072;-76
2021/03/31 22:48:04;;;;;;;7.55;2.58;;;;;;;16.09;33.50;97992.28;10125113;29;20056;-76
2021/03/31 22:53:37;;;;;;;3.95;2.00;;;;;;;16.13;33.65;97998.88;10124721;29;20539;-76
2021/03/31 22:58:57;;;;;;;6.55;2.30;;;;;;;16.18;33.61;97994.16;10137104;29;20056;-77
2021/03/31 23:09:39;;;;;;;9.73;4.57;;;;;;;15.82;34.02;97999.41;10124309;29;20049;-76
2021/03/31 23:14:59;;;;;;;13.93;6.72;;;;;;;15.58;34.19;97993.25;10137628;29;20072;-77
2021/03/31 23:20:20;;;;;;;17.35;8.48;;;;;;;15.27;34.64;97993.00;10124026;29;20400;-75
2021/03/31 23:25:40;;;;;;;14.52;8.00;;;;;;;14.97;35.21;97984.41;10122930;29;20048;-75
2021/03/31 23:31:00;;;;;;;20.00;8.50;;;;;;;14.74;35.57;97984.53;10123590;29;20485;-75
2021/03/31 23:36:20;;;;;;;16.73;9.07;;;;;;;14.55;36.36;97996.81;10136615;29;20051;-76
2021/03/31 23:41:40;;;;;;;17.30;9.13;;;;;;;14.38;36.71;97991.63;10136276;29;20052;-76
2021/03/31 23:47:00;;;;;;;18.20;10.13;;;;;;;14.21;37.19;97987.91;10136414;29;20477;-75
2021/03/31 23:52:19;;;;;;;17.10;9.35;;;;;;;14.07;37.68;97983.53;10135898;29;20052;-76
2021/03/31 23:57:39;;;;;;;21.60;9.43;;;;;;;13.92;38.08;97979.94;10122800;29;20381;-76
